LGKZ/KZI METAR and TAF weather

Enter ICAO airport designator
Station Type Date Time Source
LGKZ METAR 2019/08/22 04:20 UTC NOAA

LGKZ 220420Z AUTO 35004KT 310V010 //// // ////// 19/07 Q1022 RE//


Station Type Date Time Source
LGKZ Decoded METAR 2019/08/22 04:20 UTC NOAA

Station name not available
Aug 22, 2019 - 12:20 AM EDT / 2019.08.22 0420 UTC
Wind: from the N (350 degrees) at 5 MPH (4 KT) (direction variable):0
Temperature: 66 F (19 C)
Dew Point: 44 F (7 C)
Relative Humidity: 45%
Pressure (altimeter): 30.18 in. Hg (1022 hPa)
ob: LGKZ 220420Z AUTO 35004KT 310V010 //// // ////// 19/07 Q1022 RE//
cycle: 4

Station Type Date Time Source
LGKZ TAF UTC NOAA

Error!

Example: see airport list